createdAt,value
2018-08-16T00:00:15.198Z,99.90
2018-08-16T00:02:43.806Z,99.90
2018-08-16T00:05:13.547Z,99.90
2018-08-16T00:07:42.081Z,99.90
2018-08-16T00:10:13.156Z,99.90
2018-08-16T00:12:43.641Z,99.90
2018-08-16T00:15:11.854Z,99.90
2018-08-16T00:17:41.173Z,99.90
2018-08-16T00:20:09.998Z,99.90
2018-08-16T00:22:39.462Z,99.90
2018-08-16T00:25:08.666Z,99.90
2018-08-16T00:27:36.913Z,99.90
2018-08-16T00:30:08.313Z,99.90
2018-08-16T00:32:37.433Z,99.90
2018-08-16T00:35:05.650Z,99.90
2018-08-16T00:37:34.291Z,99.90
2018-08-16T00:40:02.736Z,99.90
2018-08-16T00:42:34.425Z,99.90
2018-08-16T00:45:05.172Z,99.90
2018-08-16T00:47:34.054Z,99.90
2018-08-16T00:50:02.964Z,99.90
2018-08-16T00:52:31.469Z,99.90
2018-08-16T00:55:00.234Z,99.90
2018-08-16T00:57:28.806Z,99.90
2018-08-16T00:59:57.021Z,99.90
2018-08-16T01:02:25.427Z,99.90
2018-08-16T01:04:54.193Z,99.90
2018-08-16T01:07:22.314Z,99.90
2018-08-16T01:09:50.991Z,99.90
2018-08-16T01:12:19.375Z,99.90
2018-08-16T01:14:48.404Z,99.90
2018-08-16T01:17:16.586Z,99.90
2018-08-16T01:19:45.428Z,99.90
2018-08-16T01:22:14.277Z,99.90
2018-08-16T01:24:42.926Z,99.90
2018-08-16T01:27:11.098Z,99.90
2018-08-16T01:29:39.668Z,99.90
2018-08-16T01:32:09.880Z,99.90
2018-08-16T01:34:38.737Z,99.90
2018-08-16T01:37:06.878Z,99.90
2018-08-16T01:39:35.785Z,99.90
2018-08-16T01:42:04.251Z,99.90
2018-08-16T01:44:33.346Z,99.90
2018-08-16T01:47:01.509Z,99.90
2018-08-16T01:49:35.241Z,99.90
2018-08-16T01:52:04.017Z,99.90
2018-08-16T01:54:34.293Z,99.90
2018-08-16T01:57:03.454Z,99.90
2018-08-16T01:59:32.018Z,99.90
2018-08-16T02:02:00.493Z,99.90
2018-08-16T02:04:28.612Z,99.90
2018-08-16T02:06:56.841Z,99.90
2018-08-16T02:09:25.105Z,99.90
2018-08-16T02:11:54.012Z,99.90
2018-08-16T02:14:22.861Z,99.90
2018-08-16T02:16:52.006Z,99.90
2018-08-16T02:19:21.362Z,99.90
2018-08-16T02:21:49.617Z,99.90
2018-08-16T02:24:18.229Z,99.90
2018-08-16T02:26:48.222Z,99.90
2018-08-16T02:29:16.417Z,99.90
2018-08-16T02:31:44.734Z,99.90
2018-08-16T02:34:12.869Z,99.90
2018-08-16T02:36:42.838Z,99.90
2018-08-16T02:39:11.182Z,99.90
2018-08-16T02:41:40.299Z,99.90
2018-08-16T02:44:09.578Z,99.90
2018-08-16T02:46:38.601Z,99.90
2018-08-16T02:49:07.157Z,99.90
2018-08-16T02:51:35.778Z,99.90
2018-08-16T02:54:03.958Z,99.90
2018-08-16T02:56:32.586Z,99.90
2018-08-16T02:59:01.814Z,99.90
2018-08-16T03:01:30.600Z,99.90
2018-08-16T03:03:59.260Z,99.90
2018-08-16T03:06:27.797Z,99.90
2018-08-16T03:08:55.933Z,99.90
2018-08-16T03:11:24.719Z,99.90
2018-08-16T03:13:53.472Z,99.90
2018-08-16T03:16:21.809Z,99.90
2018-08-16T03:18:50.574Z,99.90
2018-08-16T03:21:18.790Z,99.90
2018-08-16T03:23:46.945Z,99.90
2018-08-16T03:26:15.318Z,99.90
2018-08-16T03:28:44.069Z,99.90
2018-08-16T03:31:14.150Z,99.90
2018-08-16T03:33:42.297Z,99.90
2018-08-16T03:36:12.333Z,99.90
2018-08-16T03:38:40.593Z,99.90
2018-08-16T03:41:08.836Z,99.90
2018-08-16T03:43:37.133Z,99.90
2018-08-16T03:46:05.410Z,99.90
2018-08-16T03:48:34.594Z,99.90
2018-08-16T03:51:03.149Z,99.90
2018-08-16T03:53:31.994Z,99.90
2018-08-16T03:56:00.919Z,99.90
2018-08-16T03:58:29.161Z,99.90
2018-08-16T04:00:57.746Z,99.90
2018-08-16T04:03:26.401Z,99.90
2018-08-16T04:05:55.503Z,99.90
2018-08-16T04:08:24.441Z,99.90
2018-08-16T04:10:52.621Z,99.90
2018-08-16T04:13:21.210Z,99.90
2018-08-16T04:15:50.107Z,99.90
2018-08-16T04:18:19.278Z,99.90
2018-08-16T04:20:49.106Z,99.90
2018-08-16T04:23:17.959Z,99.90
2018-08-16T04:25:46.810Z,99.90
2018-08-16T04:28:15.297Z,99.90
2018-08-16T04:30:44.234Z,99.90
2018-08-16T04:33:12.471Z,99.90
2018-08-16T04:35:40.663Z,99.90
2018-08-16T04:38:09.586Z,99.90
2018-08-16T04:40:37.890Z,99.90
2018-08-16T04:43:06.432Z,99.90
2018-08-16T04:45:35.049Z,99.90
2018-08-16T04:48:03.206Z,99.90
2018-08-16T04:50:32.801Z,99.90
2018-08-16T04:53:01.831Z,99.90
2018-08-16T04:55:30.794Z,99.90
2018-08-16T04:57:59.055Z,99.90
2018-08-16T05:00:27.891Z,99.90
2018-08-16T05:02:56.050Z,99.90
2018-08-16T05:05:24.893Z,99.90
2018-08-16T05:07:53.129Z,99.90
2018-08-16T05:10:21.914Z,99.90
2018-08-16T05:12:51.189Z,99.90
2018-08-16T05:15:20.004Z,99.90
2018-08-16T05:17:48.383Z,99.90
2018-08-16T05:20:17.009Z,99.90
2018-08-16T05:22:45.493Z,99.90
2018-08-16T05:25:15.054Z,99.90
2018-08-16T05:27:43.545Z,99.90
2018-08-16T05:30:13.063Z,99.90
2018-08-16T05:32:42.923Z,99.90
2018-08-16T05:35:11.134Z,99.90
2018-08-16T05:37:39.379Z,99.90
2018-08-16T05:40:09.873Z,99.90
2018-08-16T05:42:38.657Z,99.90
2018-08-16T05:45:08.463Z,99.90
2018-08-16T05:47:37.937Z,99.90
2018-08-16T05:50:09.220Z,99.90
2018-08-16T05:52:38.172Z,99.90
2018-08-16T05:55:06.877Z,99.90
2018-08-16T05:57:35.019Z,99.90
2018-08-16T06:00:04.910Z,99.90
2018-08-16T06:02:33.668Z,99.90
2018-08-16T06:05:01.847Z,99.90
2018-08-16T06:07:31.056Z,99.90
2018-08-16T06:09:59.419Z,99.90
2018-08-16T06:12:28.576Z,99.90
2018-08-16T06:14:56.921Z,99.90
2018-08-16T06:17:25.961Z,99.90
2018-08-16T06:19:54.590Z,99.90
2018-08-16T06:22:24.413Z,99.90
2018-08-16T06:24:54.465Z,99.90
2018-08-16T06:27:22.717Z,99.90
2018-08-16T06:29:51.105Z,99.90
2018-08-16T06:32:19.334Z,99.90
2018-08-16T06:34:48.257Z,99.90
2018-08-16T06:37:17.494Z,99.90
2018-08-16T06:39:45.778Z,99.90
2018-08-16T06:42:13.964Z,99.90
2018-08-16T06:44:42.156Z,99.90
2018-08-16T06:47:14.838Z,99.90
2018-08-16T06:49:43.351Z,99.90
2018-08-16T06:52:12.494Z,99.90
2018-08-16T06:54:40.963Z,99.90
2018-08-16T06:57:09.650Z,99.90
2018-08-16T06:59:38.436Z,99.90
2018-08-16T07:02:07.695Z,99.90
2018-08-16T07:04:36.011Z,99.90
2018-08-16T07:07:04.818Z,99.90
2018-08-16T07:09:34.638Z,99.90
2018-08-16T07:12:03.652Z,99.90
2018-08-16T07:14:32.218Z,99.90
2018-08-16T07:17:00.722Z,99.90
2018-08-16T07:19:28.863Z,99.90
2018-08-16T07:21:57.014Z,99.90
2018-08-16T07:24:25.601Z,99.90
2018-08-16T07:26:53.749Z,99.90
2018-08-16T07:29:22.617Z,99.90
2018-08-16T07:31:55.497Z,99.90
2018-08-16T07:34:23.646Z,99.90
2018-08-16T07:36:53.286Z,99.90
2018-08-16T07:39:22.549Z,99.90
2018-08-16T07:41:51.535Z,99.90
2018-08-16T07:44:20.361Z,99.90
2018-08-16T07:46:48.570Z,99.90
2018-08-16T07:49:16.885Z,99.90
2018-08-16T07:51:47.926Z,99.90
2018-08-16T07:54:17.946Z,99.90
2018-08-16T07:56:46.333Z,99.90
2018-08-16T07:59:14.541Z,99.90
2018-08-16T08:01:43.490Z,99.90
2018-08-16T08:04:11.982Z,99.90
2018-08-16T08:06:40.666Z,99.90
2018-08-16T08:09:09.842Z,99.90
2018-08-16T08:11:38.673Z,99.90
2018-08-16T08:14:08.307Z,99.90
2018-08-16T08:16:37.316Z,99.90
2018-08-16T08:19:06.790Z,99.90
2018-08-16T08:21:35.561Z,99.90
2018-08-16T08:24:03.756Z,99.90
2018-08-16T08:26:32.086Z,99.90
2018-08-16T08:29:01.302Z,99.90
2018-08-16T08:31:30.924Z,99.90
2018-08-16T08:33:59.771Z,99.90
2018-08-16T08:36:40.626Z,99.90
2018-08-16T08:39:10.382Z,99.90
2018-08-16T08:41:39.408Z,99.90
2018-08-16T08:44:16.440Z,99.90
2018-08-16T08:46:44.966Z,98.60
2018-08-16T08:49:13.778Z,99.20
2018-08-16T08:51:42.006Z,99.90
2018-08-16T08:54:54.096Z,99.90
2018-08-16T08:57:34.618Z,98.60
2018-08-16T09:00:02.777Z,97.90
2018-08-16T09:02:31.444Z,98.20
2018-08-16T09:05:00.337Z,96.70
2018-08-16T09:07:28.518Z,97.50
2018-08-16T09:11:20.288Z,95.90
2018-08-16T09:14:03.097Z,95.00
2018-08-16T09:16:33.942Z,95.40
2018-08-16T09:19:03.244Z,94.40
2018-08-16T09:21:32.526Z,93.90
2018-08-16T09:24:00.722Z,94.00
2018-08-16T09:26:34.312Z,94.10
2018-08-16T09:29:04.522Z,95.10
2018-08-16T09:31:45.490Z,92.80
2018-08-16T09:34:19.389Z,92.80
2018-08-16T09:36:47.695Z,91.40
2018-08-16T09:39:16.664Z,91.90
2018-08-16T09:41:44.724Z,92.70
2018-08-16T09:44:13.627Z,91.50
2018-08-16T09:46:58.506Z,92.00
2018-08-16T09:49:27.170Z,93.50
2018-08-16T09:51:55.960Z,92.70
2018-08-16T09:54:24.583Z,92.40
2018-08-16T09:56:54.106Z,93.10
2018-08-16T09:59:22.542Z,93.80
2018-08-16T10:01:51.390Z,93.10
2018-08-16T10:04:20.124Z,92.30
2018-08-16T10:06:48.613Z,91.60
2018-08-16T10:09:19.047Z,88.20
2018-08-16T10:11:48.026Z,86.10
2018-08-16T10:14:17.031Z,88.80
2018-08-16T10:16:45.330Z,84.30
2018-08-16T10:19:13.897Z,82.90
2018-08-16T10:21:42.215Z,82.30
2018-08-16T10:24:10.496Z,82.10
2018-08-16T10:26:38.705Z,78.40
2018-08-16T10:29:07.447Z,82.10
2018-08-16T10:31:36.030Z,81.60
2018-08-16T10:34:04.425Z,75.30
2018-08-16T10:36:32.651Z,71.30
2018-08-16T10:39:00.899Z,69.40
2018-08-16T10:41:29.895Z,71.00
2018-08-16T10:43:58.512Z,72.10
2018-08-16T10:46:26.801Z,71.20
2018-08-16T10:48:56.578Z,70.70
2018-08-16T10:51:25.069Z,73.00
2018-08-16T10:53:53.942Z,72.70
2018-08-16T10:56:22.288Z,74.90
2018-08-16T10:58:50.453Z,81.00
2018-08-16T11:01:18.719Z,76.90
2018-08-16T11:03:47.199Z,74.20
2018-08-16T11:06:16.202Z,73.80
2018-08-16T11:08:44.633Z,70.30
2018-08-16T11:11:12.839Z,70.40
2018-08-16T11:13:41.181Z,69.00
2018-08-16T11:16:10.271Z,69.00
2018-08-16T11:18:38.539Z,68.20
2018-08-16T11:21:07.002Z,68.90
2018-08-16T11:23:35.217Z,73.30
2018-08-16T11:26:04.395Z,73.60
2018-08-16T11:28:32.740Z,73.90
2018-08-16T11:31:03.087Z,72.60
2018-08-16T11:33:31.396Z,72.80
2018-08-16T11:35:59.672Z,69.20
2018-08-16T11:38:27.779Z,70.10
2018-08-16T11:40:56.083Z,71.30
2018-08-16T11:43:26.191Z,73.30
2018-08-16T11:45:56.121Z,73.40
2018-08-16T11:48:24.375Z,73.90
2018-08-16T11:50:52.686Z,74.20
2018-08-16T11:53:21.014Z,69.80
2018-08-16T11:55:49.370Z,70.50
2018-08-16T11:58:18.321Z,70.80
2018-08-16T12:00:46.475Z,69.40
2018-08-16T12:03:15.313Z,67.50
2018-08-16T12:05:43.538Z,69.20
2018-08-16T12:08:11.730Z,72.40
2018-08-16T12:10:40.325Z,66.70
2018-08-16T12:13:08.852Z,67.30
2018-08-16T12:15:37.191Z,69.80
2018-08-16T12:18:06.259Z,69.20
2018-08-16T12:20:34.470Z,68.90
2018-08-16T12:23:02.670Z,69.00
2018-08-16T12:28:05.631Z,66.50
2018-08-16T12:30:34.164Z,70.80
2018-08-16T12:33:02.365Z,67.60
2018-08-16T12:35:30.982Z,68.30
2018-08-16T12:37:59.597Z,69.00
2018-08-16T12:40:27.976Z,68.80
2018-08-16T12:42:56.217Z,69.60
2018-08-16T12:45:24.346Z,73.70
2018-08-16T12:47:52.726Z,71.80
2018-08-16T12:50:20.819Z,70.60
2018-08-16T12:52:49.564Z,69.80
2018-08-16T12:55:18.409Z,69.00
2018-08-16T12:57:46.608Z,70.40
2018-08-16T13:00:17.058Z,70.20
2018-08-16T13:02:48.051Z,68.80
2018-08-16T13:05:16.202Z,71.20
2018-08-16T13:07:44.847Z,66.30
2018-08-16T13:10:13.630Z,67.80
2018-08-16T13:12:41.770Z,67.70
2018-08-16T13:15:10.803Z,68.80
2018-08-16T13:17:40.177Z,66.60
2018-08-16T13:20:09.030Z,68.10
2018-08-16T13:22:37.485Z,67.70
2018-08-16T13:25:06.542Z,69.00
2018-08-16T13:28:37.779Z,68.30
2018-08-16T13:31:06.265Z,68.50
2018-08-16T13:33:34.674Z,68.30
2018-08-16T13:36:02.831Z,68.60
2018-08-16T13:38:31.052Z,68.60
2018-08-16T13:40:59.401Z,69.70
2018-08-16T13:43:27.655Z,69.60
2018-08-16T13:45:56.122Z,72.10
2018-08-16T13:48:24.403Z,70.00
2018-08-16T13:50:52.591Z,69.40
2018-08-16T13:53:21.270Z,70.90
2018-08-16T13:55:50.058Z,68.10
2018-08-16T13:58:18.275Z,72.30
2018-08-16T14:00:46.414Z,72.20
2018-08-16T14:03:14.721Z,72.10
2018-08-16T14:05:43.070Z,70.20
2018-08-16T14:08:11.569Z,70.60
2018-08-16T14:10:39.660Z,70.50
2018-08-16T14:13:08.088Z,70.70
2018-08-16T14:15:36.586Z,72.40
2018-08-16T14:18:05.696Z,69.90
2018-08-16T14:20:34.068Z,69.50
2018-08-16T14:23:02.264Z,69.40
2018-08-16T14:25:30.469Z,69.80
2018-08-16T14:27:59.545Z,70.20
2018-08-16T14:30:28.024Z,70.80
2018-08-16T14:32:56.181Z,69.70
2018-08-16T14:35:25.061Z,71.20
2018-08-16T14:37:53.264Z,70.60
2018-08-16T14:40:22.526Z,68.70
2018-08-16T14:42:52.426Z,72.80
2018-08-16T14:45:20.694Z,70.00
2018-08-16T14:47:50.294Z,67.40
2018-08-16T14:50:18.510Z,70.60
2018-08-16T14:52:46.842Z,70.60
2018-08-16T14:55:15.025Z,70.90
2018-08-16T14:57:44.858Z,71.40
2018-08-16T15:00:13.086Z,68.50
2018-08-16T15:02:42.077Z,68.10
2018-08-16T15:05:11.017Z,71.20
2018-08-16T15:07:39.978Z,68.20
2018-08-16T15:10:08.275Z,68.50
2018-08-16T15:12:38.031Z,69.10
2018-08-16T15:15:06.946Z,69.00
2018-08-16T15:17:35.914Z,70.40
2018-08-16T15:20:06.057Z,72.10
2018-08-16T15:22:34.802Z,72.70
2018-08-16T15:25:04.918Z,74.10
2018-08-16T15:27:33.933Z,70.00
2018-08-16T15:30:02.849Z,72.30
2018-08-16T15:32:31.214Z,74.30
2018-08-16T15:34:59.491Z,74.30
2018-08-16T15:37:27.753Z,74.10
2018-08-16T15:39:56.058Z,74.20
2018-08-16T15:42:24.873Z,71.70
2018-08-16T15:44:53.728Z,71.30
2018-08-16T15:47:22.597Z,71.80
2018-08-16T15:49:50.771Z,71.20
2018-08-16T15:52:20.597Z,69.90
2018-08-16T15:54:50.036Z,71.90
2018-08-16T15:57:18.866Z,72.40
2018-08-16T15:59:47.155Z,73.00
2018-08-16T16:02:15.846Z,71.40
2018-08-16T16:04:44.148Z,71.10
2018-08-16T16:07:12.601Z,73.40
2018-08-16T16:09:41.438Z,73.30
2018-08-16T16:12:09.886Z,74.40
2018-08-16T16:14:38.770Z,77.10
2018-08-16T16:17:07.094Z,75.30
2018-08-16T16:19:35.819Z,74.80
2018-08-16T16:22:04.334Z,78.10
2018-08-16T16:24:33.342Z,75.40
2018-08-16T16:27:01.898Z,79.30
2018-08-16T16:29:30.390Z,81.70
2018-08-16T16:31:58.855Z,80.10
2018-08-16T16:34:27.822Z,81.10
2018-08-16T16:36:56.333Z,80.00
2018-08-16T16:39:24.576Z,82.80
2018-08-16T16:41:53.551Z,81.20
2018-08-16T16:44:21.893Z,83.10
2018-08-16T16:46:50.755Z,83.20
2018-08-16T16:49:23.838Z,82.80
2018-08-16T16:51:53.743Z,84.50
2018-08-16T16:54:21.977Z,84.10
2018-08-16T16:56:51.273Z,84.50
2018-08-16T16:59:19.849Z,85.20
2018-08-16T17:01:48.024Z,87.60
2018-08-16T17:04:17.191Z,87.20
2018-08-16T17:06:45.416Z,87.60
2018-08-16T17:09:14.262Z,87.30
2018-08-16T17:11:43.159Z,88.80
2018-08-16T17:14:11.943Z,89.00
2018-08-16T17:16:40.739Z,89.60
2018-08-16T17:19:09.164Z,89.10
2018-08-16T17:21:37.818Z,88.90
2018-08-16T17:24:06.234Z,89.10
2018-08-16T17:26:35.053Z,89.40
2018-08-16T17:29:03.861Z,89.60
2018-08-16T17:31:32.584Z,88.00
2018-08-16T17:34:01.359Z,89.80
2018-08-16T17:36:30.529Z,91.00
2018-08-16T17:38:59.025Z,90.50
2018-08-16T17:41:28.216Z,90.90
2018-08-16T17:43:58.043Z,90.90
2018-08-16T17:46:26.754Z,91.10
2018-08-16T17:48:56.463Z,91.20
2018-08-16T17:51:26.569Z,91.60
2018-08-16T17:53:55.367Z,91.70
2018-08-16T17:56:23.778Z,92.20
2018-08-16T17:58:52.607Z,92.40
2018-08-16T18:01:22.634Z,92.60
2018-08-16T18:03:52.556Z,92.50
2018-08-16T18:06:21.378Z,93.50
2018-08-16T18:08:49.591Z,93.70
2018-08-16T18:11:17.829Z,93.10
2018-08-16T18:13:47.389Z,93.60
2018-08-16T18:16:15.590Z,93.80
2018-08-16T18:18:43.758Z,94.10
2018-08-16T18:21:12.023Z,94.90
2018-08-16T18:23:40.405Z,95.50
2018-08-16T18:26:09.717Z,95.10
2018-08-16T18:28:38.693Z,96.00
2018-08-16T18:31:07.913Z,96.30
2018-08-16T18:33:36.153Z,96.90
2018-08-16T18:36:05.632Z,96.70
2018-08-16T18:38:34.701Z,96.90
2018-08-16T18:41:03.822Z,97.40
2018-08-16T18:43:32.397Z,97.20
2018-08-16T18:46:01.446Z,97.70
2018-08-16T18:48:29.882Z,98.60
2018-08-16T18:50:58.383Z,98.50
2018-08-16T18:53:27.026Z,99.20
2018-08-16T18:55:55.408Z,99.20
2018-08-16T18:58:24.543Z,99.90
2018-08-16T19:00:54.513Z,99.90
2018-08-16T19:03:23.241Z,99.90
2018-08-16T19:05:52.249Z,99.90
2018-08-16T19:08:20.623Z,99.90
2018-08-16T19:10:49.437Z,99.90
2018-08-16T19:13:18.504Z,99.90
2018-08-16T19:15:47.302Z,99.90
2018-08-16T19:18:15.609Z,99.90
2018-08-16T19:20:44.048Z,99.90
2018-08-16T19:23:12.919Z,99.90
2018-08-16T19:25:42.612Z,99.90
2018-08-16T19:28:10.913Z,99.90
2018-08-16T19:30:39.112Z,99.90
2018-08-16T19:33:08.131Z,99.90
2018-08-16T19:35:36.762Z,99.90
2018-08-16T19:38:05.969Z,99.90
2018-08-16T19:40:34.907Z,99.90
2018-08-16T19:43:03.506Z,99.90
2018-08-16T19:45:31.761Z,99.90
2018-08-16T19:48:00.173Z,99.90
2018-08-16T19:50:28.427Z,99.90
2018-08-16T19:52:57.078Z,99.90
2018-08-16T19:55:25.249Z,99.90
2018-08-16T19:57:53.615Z,99.90
2018-08-16T20:00:22.158Z,99.90
2018-08-16T20:02:51.349Z,99.90
2018-08-16T20:05:19.554Z,99.90
2018-08-16T20:07:48.026Z,99.90
2018-08-16T20:10:17.022Z,99.90
2018-08-16T20:12:45.226Z,99.90
2018-08-16T20:15:13.497Z,99.90
2018-08-16T20:17:41.665Z,99.90
2018-08-16T20:20:10.554Z,99.90
2018-08-16T20:22:38.731Z,99.90
2018-08-16T20:25:08.428Z,99.90
2018-08-16T20:27:37.483Z,99.90
2018-08-16T20:30:06.960Z,99.90
2018-08-16T20:32:35.525Z,99.90
2018-08-16T20:35:04.307Z,99.90
2018-08-16T20:37:33.337Z,99.90
2018-08-16T20:40:01.718Z,99.90
2018-08-16T20:42:29.838Z,99.90
2018-08-16T20:44:58.063Z,99.90
2018-08-16T20:47:26.838Z,99.90
2018-08-16T20:49:54.972Z,99.90
2018-08-16T20:52:24.117Z,99.90
2018-08-16T20:54:53.942Z,99.90
2018-08-16T20:57:22.098Z,99.90
2018-08-16T20:59:50.303Z,99.90
2018-08-16T21:02:19.747Z,99.90
2018-08-16T21:04:48.822Z,99.90
2018-08-16T21:07:17.347Z,99.90
2018-08-16T21:09:45.501Z,99.90
2018-08-16T21:12:14.475Z,99.90
2018-08-16T21:14:44.078Z,99.90
2018-08-16T21:17:12.358Z,99.90
2018-08-16T21:19:42.323Z,99.90
2018-08-16T21:22:11.287Z,99.90
2018-08-16T21:24:39.594Z,99.90
2018-08-16T21:27:08.581Z,99.90
2018-08-16T21:29:36.789Z,99.90
2018-08-16T21:32:05.366Z,99.90
2018-08-16T21:34:33.497Z,99.90
2018-08-16T21:37:02.117Z,99.90
2018-08-16T21:39:30.862Z,99.90
2018-08-16T21:41:59.360Z,99.90
2018-08-16T21:44:29.147Z,99.90
2018-08-16T21:46:57.726Z,99.90
2018-08-16T21:49:26.429Z,99.90
2018-08-16T21:51:55.398Z,99.90
2018-08-16T21:54:23.994Z,99.90
2018-08-16T21:56:52.966Z,99.90
2018-08-16T21:59:21.224Z,99.90
2018-08-16T22:01:49.361Z,99.90
2018-08-16T22:04:17.977Z,99.90
2018-08-16T22:07:03.413Z,99.90
2018-08-16T22:10:34.793Z,99.90
2018-08-16T22:13:03.480Z,99.90
2018-08-16T22:15:32.209Z,99.90
2018-08-16T22:18:01.126Z,99.90
2018-08-16T22:20:29.217Z,99.90
2018-08-16T22:22:58.170Z,99.90
2018-08-16T22:25:26.872Z,99.90
2018-08-16T22:27:55.308Z,99.90
2018-08-16T22:30:24.225Z,99.90
2018-08-16T22:32:53.214Z,99.90
2018-08-16T22:35:21.342Z,99.90
2018-08-16T22:37:50.209Z,99.90
2018-08-16T22:40:18.921Z,99.90
2018-08-16T22:42:47.282Z,99.90
2018-08-16T22:45:15.997Z,99.90
2018-08-16T22:47:44.217Z,99.90
2018-08-16T22:50:12.894Z,99.90
2018-08-16T22:52:42.084Z,99.90
2018-08-16T22:55:12.163Z,99.90
2018-08-16T22:57:41.257Z,99.90
2018-08-16T23:00:11.242Z,99.90
2018-08-16T23:02:40.278Z,99.90
2018-08-16T23:05:10.928Z,99.90
2018-08-16T23:07:39.243Z,99.90
2018-08-16T23:10:07.666Z,99.90
2018-08-16T23:12:35.856Z,99.90
2018-08-16T23:15:04.848Z,99.90
2018-08-16T23:17:33.086Z,99.90
2018-08-16T23:20:01.490Z,99.90
2018-08-16T23:22:30.879Z,99.90
2018-08-16T23:24:59.090Z,99.90
2018-08-16T23:27:27.306Z,99.90
2018-08-16T23:29:56.743Z,99.90
2018-08-16T23:32:25.239Z,99.90
2018-08-16T23:34:53.468Z,99.90
2018-08-16T23:37:21.745Z,99.90
2018-08-16T23:39:50.015Z,99.90
2018-08-16T23:42:18.970Z,99.90
2018-08-16T23:44:47.955Z,99.90
2018-08-16T23:47:20.898Z,99.90
2018-08-16T23:49:50.329Z,99.90
2018-08-16T23:52:19.109Z,99.90
2018-08-16T23:54:48.257Z,99.90
2018-08-16T23:57:16.501Z,99.90
2018-08-16T23:59:44.737Z,99.90
